createdAt,value
2023-02-15T00:00:44.124Z,99.90
2023-02-15T00:05:10.368Z,99.90
2023-02-15T00:09:32.566Z,99.90
2023-02-15T00:13:55.146Z,99.90
2023-02-15T00:18:17.107Z,99.90
2023-02-15T00:22:39.664Z,99.90
2023-02-15T00:27:01.335Z,99.90
2023-02-15T00:31:23.729Z,99.90
2023-02-15T00:35:45.979Z,99.90
2023-02-15T00:40:08.943Z,99.90
2023-02-15T00:44:30.769Z,99.90
2023-02-15T00:48:52.806Z,99.90
2023-02-15T00:53:14.957Z,99.90
2023-02-15T00:57:36.915Z,99.90
2023-02-15T01:01:58.979Z,99.90
2023-02-15T01:06:21.089Z,99.90
2023-02-15T01:10:45.091Z,99.90
2023-02-15T01:15:07.260Z,99.90
2023-02-15T01:19:29.137Z,99.90
2023-02-15T01:23:51.250Z,99.90
2023-02-15T01:28:13.539Z,99.90
2023-02-15T01:32:35.535Z,99.90
2023-02-15T01:36:57.412Z,99.90
2023-02-15T01:41:25.535Z,99.90
2023-02-15T01:45:50.949Z,99.90
2023-02-15T01:50:35.672Z,99.90
2023-02-15T01:54:57.749Z,99.90
2023-02-15T01:59:24.591Z,99.90
2023-02-15T02:04:16.666Z,99.90
2023-02-15T02:08:39.290Z,99.90
2023-02-15T02:13:07.129Z,99.90
2023-02-15T02:18:07.081Z,99.90
2023-02-15T02:23:03.106Z,99.90
2023-02-15T02:28:10.286Z,99.90
2023-02-15T02:33:13.078Z,99.90
2023-02-15T02:37:56.092Z,99.90
2023-02-15T02:42:37.066Z,99.90
2023-02-15T02:47:45.845Z,99.90
2023-02-15T02:52:33.915Z,99.90
2023-02-15T02:57:00.428Z,99.90
2023-02-15T03:01:34.742Z,99.90
2023-02-15T03:06:03.558Z,99.90
2023-02-15T03:10:27.385Z,99.90
2023-02-15T03:14:54.631Z,99.90
2023-02-15T03:19:28.210Z,99.90
2023-02-15T03:24:04.420Z,99.90
2023-02-15T03:28:58.314Z,99.90
2023-02-15T03:33:21.700Z,99.90
2023-02-15T03:37:58.433Z,99.90
2023-02-15T03:42:33.148Z,99.90
2023-02-15T03:47:09.727Z,99.90
2023-02-15T03:51:39.226Z,99.90
2023-02-15T03:56:01.831Z,99.90
2023-02-15T04:00:44.921Z,99.90
2023-02-15T04:05:07.306Z,99.90
2023-02-15T04:09:48.307Z,99.90
2023-02-15T04:14:29.242Z,99.90
2023-02-15T04:19:10.588Z,99.90
2023-02-15T04:23:51.892Z,99.90
2023-02-15T04:28:14.083Z,99.90
2023-02-15T04:32:36.783Z,99.90
2023-02-15T04:36:58.585Z,99.90
2023-02-15T04:41:20.639Z,99.90
2023-02-15T04:45:42.593Z,99.90
2023-02-15T04:50:05.223Z,99.90
2023-02-15T04:54:27.330Z,99.90
2023-02-15T04:58:49.731Z,99.90
2023-02-15T05:03:11.869Z,99.90
2023-02-15T05:07:33.733Z,99.90
2023-02-15T05:11:55.871Z,99.90
2023-02-15T05:16:18.053Z,99.90
2023-02-15T05:20:40.021Z,99.90
2023-02-15T05:25:20.593Z,99.90
2023-02-15T05:29:42.765Z,99.90
2023-02-15T05:34:04.978Z,99.90
2023-02-15T05:38:26.807Z,99.90
2023-02-15T05:42:50.016Z,99.90
2023-02-15T05:47:12.403Z,99.90
2023-02-15T05:51:34.538Z,99.90
2023-02-15T05:56:00.940Z,99.90
2023-02-15T06:00:23.590Z,99.90
2023-02-15T06:04:45.438Z,99.90
2023-02-15T06:09:07.528Z,99.90
2023-02-15T06:13:30.118Z,99.90
2023-02-15T06:17:52.279Z,99.90
2023-02-15T06:22:15.219Z,99.90
2023-02-15T06:26:37.119Z,99.90
2023-02-15T06:30:59.022Z,99.90
2023-02-15T06:35:21.218Z,99.90
2023-02-15T06:39:44.158Z,99.90
2023-02-15T06:44:06.146Z,99.90
2023-02-15T06:48:28.139Z,99.90
2023-02-15T06:52:50.201Z,99.90
2023-02-15T06:57:12.461Z,99.90
2023-02-15T07:01:34.479Z,99.90
2023-02-15T07:06:02.106Z,99.90
2023-02-15T07:10:24.334Z,99.90
2023-02-15T07:14:46.083Z,99.90
2023-02-15T07:19:08.559Z,99.90
2023-02-15T07:23:30.753Z,99.90
2023-02-15T07:28:02.671Z,99.90
2023-02-15T07:32:24.816Z,99.90
2023-02-15T07:36:46.973Z,99.90
2023-02-15T07:41:13.298Z,99.90
2023-02-15T07:45:35.267Z,95.10
2023-02-15T07:49:57.071Z,81.60
2023-02-15T07:54:19.450Z,71.80
2023-02-15T07:58:54.010Z,66.40
2023-02-15T08:03:15.843Z,62.80
2023-02-15T08:07:38.010Z,59.60
2023-02-15T08:12:00.133Z,57.50
2023-02-15T08:16:33.075Z,56.40
2023-02-15T08:20:57.515Z,57.00
2023-02-15T08:25:19.680Z,55.60
2023-02-15T08:29:43.386Z,53.70
2023-02-15T08:34:06.682Z,52.50
2023-02-15T08:38:28.501Z,52.40
2023-02-15T08:42:50.279Z,51.00
2023-02-15T08:47:12.801Z,49.80
2023-02-15T08:51:38.662Z,48.80
2023-02-15T08:56:01.033Z,47.80
2023-02-15T09:00:23.797Z,46.70
2023-02-15T09:04:45.967Z,46.20
2023-02-15T09:09:08.978Z,46.50
2023-02-15T09:13:31.177Z,46.20
2023-02-15T09:17:53.926Z,46.20
2023-02-15T09:22:15.967Z,45.50
2023-02-15T09:26:42.209Z,44.30
2023-02-15T09:31:17.505Z,44.50
2023-02-15T09:35:39.669Z,44.50
2023-02-15T09:40:01.948Z,45.10
2023-02-15T09:45:14.416Z,45.10
2023-02-15T09:49:51.705Z,43.90
2023-02-15T09:54:29.084Z,42.30
2023-02-15T09:59:21.597Z,42.40
2023-02-15T10:04:19.130Z,42.10
2023-02-15T10:09:17.196Z,41.70
2023-02-15T10:14:05.501Z,39.70
2023-02-15T10:18:42.204Z,39.90
2023-02-15T10:23:14.363Z,39.40
2023-02-15T10:27:39.965Z,39.20
2023-02-15T10:32:29.337Z,38.20
2023-02-15T10:37:25.315Z,37.30
2023-02-15T10:42:15.576Z,37.90
2023-02-15T10:52:34.457Z,37.30
2023-02-15T10:57:28.056Z,35.90
2023-02-15T11:02:15.798Z,35.90
2023-02-15T11:06:42.895Z,34.90
2023-02-15T11:11:13.433Z,34.20
2023-02-15T11:15:48.672Z,34.30
2023-02-15T11:20:44.906Z,34.80
2023-02-15T11:25:31.178Z,32.50
2023-02-15T11:30:20.626Z,32.50
2023-02-15T11:35:18.878Z,32.00
2023-02-15T11:39:42.074Z,34.20
2023-02-15T11:44:22.075Z,35.10
2023-02-15T11:48:44.326Z,38.10
2023-02-15T11:53:15.543Z,40.50
2023-02-15T11:57:45.534Z,40.70
2023-02-15T12:02:20.681Z,42.00
2023-02-15T12:07:16.516Z,41.90
2023-02-15T12:11:41.455Z,42.00
2023-02-15T12:16:13.763Z,42.10
2023-02-15T12:20:37.864Z,42.60
2023-02-15T12:25:04.037Z,43.40
2023-02-15T12:29:32.013Z,44.10
2023-02-15T12:33:59.219Z,45.30
2023-02-15T12:38:26.355Z,46.40
2023-02-15T12:42:48.394Z,47.60
2023-02-15T12:47:10.162Z,50.00
2023-02-15T12:51:33.581Z,53.30
2023-02-15T12:56:08.353Z,55.90
2023-02-15T13:00:32.988Z,55.70
2023-02-15T13:04:56.858Z,52.70
2023-02-15T13:09:32.263Z,51.80
2023-02-15T13:14:04.937Z,53.30
2023-02-15T13:18:45.418Z,55.00
2023-02-15T13:23:26.097Z,56.30
2023-02-15T13:28:03.024Z,57.20
2023-02-15T13:32:30.657Z,59.00
2023-02-15T13:37:11.840Z,58.90
2023-02-15T13:41:54.681Z,59.20
2023-02-15T13:46:44.023Z,60.00
2023-02-15T13:51:34.182Z,59.00
2023-02-15T13:56:52.420Z,58.00
2023-02-15T14:01:40.180Z,56.10
2023-02-15T14:06:30.180Z,55.30
2023-02-15T14:11:28.028Z,55.30
2023-02-15T14:16:15.813Z,56.30
2023-02-15T14:20:53.493Z,56.10
2023-02-15T14:25:21.619Z,56.50
2023-02-15T14:30:04.516Z,56.10
2023-02-15T14:34:36.789Z,55.80
2023-02-15T14:39:42.572Z,55.30
2023-02-15T14:44:38.872Z,55.10
2023-02-15T14:49:17.997Z,54.90
2023-02-15T14:53:41.040Z,55.30
2023-02-15T14:58:02.784Z,55.50
2023-02-15T15:02:49.683Z,54.10
2023-02-15T15:07:22.713Z,53.70
2023-02-15T15:11:50.179Z,54.10
2023-02-15T15:16:39.164Z,54.20
2023-02-15T15:21:01.226Z,54.10
2023-02-15T15:25:42.242Z,54.80
2023-02-15T15:30:24.380Z,56.00
2023-02-15T15:35:23.536Z,57.40
2023-02-15T15:40:36.293Z,58.30
2023-02-15T15:45:11.862Z,59.40
2023-02-15T15:49:36.273Z,59.70
2023-02-15T15:53:58.812Z,60.30
2023-02-15T15:58:21.161Z,60.00
2023-02-15T16:02:54.269Z,60.10
2023-02-15T16:07:19.301Z,60.70
2023-02-15T16:11:42.086Z,61.60
2023-02-15T16:16:04.833Z,62.40
2023-02-15T16:20:38.008Z,64.70
2023-02-15T16:25:54.713Z,66.00
2023-02-15T16:30:37.622Z,67.40
2023-02-15T16:35:03.371Z,69.40
2023-02-15T16:39:25.291Z,70.60
2023-02-15T16:43:50.176Z,71.90
2023-02-15T16:48:22.972Z,73.80
2023-02-15T16:52:45.565Z,75.80
2023-02-15T16:57:19.693Z,76.80
2023-02-15T17:01:45.981Z,78.50
2023-02-15T17:06:26.850Z,81.10
2023-02-15T17:11:21.573Z,84.60
2023-02-15T17:16:06.042Z,83.70
2023-02-15T17:20:31.152Z,81.70
2023-02-15T17:25:05.599Z,81.10
2023-02-15T17:29:38.572Z,81.30
2023-02-15T17:34:02.720Z,81.70
2023-02-15T17:38:25.749Z,83.00
2023-02-15T17:42:48.112Z,83.50
2023-02-15T17:47:22.125Z,84.40
2023-02-15T17:51:44.608Z,85.20
2023-02-15T17:56:15.483Z,86.50
2023-02-15T18:01:16.728Z,88.70
2023-02-15T18:05:57.480Z,88.80
2023-02-15T18:10:38.815Z,90.20
2023-02-15T18:15:01.857Z,91.70
2023-02-15T18:19:26.504Z,93.50
2023-02-15T18:23:48.881Z,96.30
2023-02-15T18:28:14.143Z,99.40
2023-02-15T18:32:40.380Z,99.90
2023-02-15T18:37:05.734Z,99.90
2023-02-15T18:41:27.464Z,99.90
2023-02-15T18:45:49.584Z,99.90
2023-02-15T18:50:14.281Z,99.90
2023-02-15T18:54:36.467Z,99.90
2023-02-15T18:58:58.370Z,99.90
2023-02-15T19:03:20.291Z,99.90
2023-02-15T19:07:45.576Z,99.90
2023-02-15T19:12:13.436Z,99.90
2023-02-15T19:16:36.382Z,99.90
2023-02-15T19:20:58.347Z,99.90
2023-02-15T19:25:25.842Z,99.90
2023-02-15T19:29:48.581Z,99.90
2023-02-15T19:34:18.729Z,99.90
2023-02-15T19:38:41.927Z,99.90
2023-02-15T19:43:04.206Z,99.90
2023-02-15T19:47:28.498Z,99.90
2023-02-15T19:51:50.252Z,99.90
2023-02-15T19:56:18.324Z,99.90
2023-02-15T20:00:40.356Z,99.90
2023-02-15T20:05:02.237Z,99.90
2023-02-15T20:09:37.873Z,99.90
2023-02-15T20:13:59.992Z,99.90
2023-02-15T20:18:22.778Z,99.90
2023-02-15T20:22:48.142Z,99.90
2023-02-15T20:27:18.438Z,99.90
2023-02-15T20:31:41.065Z,99.90
2023-02-15T20:36:04.036Z,99.90
2023-02-15T20:40:35.565Z,99.90
2023-02-15T20:44:57.278Z,99.90
2023-02-15T20:49:19.700Z,99.90
2023-02-15T20:53:41.838Z,99.90
2023-02-15T20:58:14.738Z,99.90
2023-02-15T21:02:36.570Z,99.90
2023-02-15T21:07:01.504Z,99.90
2023-02-15T21:11:23.978Z,99.90
2023-02-15T21:15:45.689Z,99.90
2023-02-15T21:20:14.517Z,99.90
2023-02-15T21:24:36.822Z,99.90
2023-02-15T21:28:58.759Z,99.90
2023-02-15T21:33:20.748Z,99.90
2023-02-15T21:37:44.589Z,99.90
2023-02-15T21:42:29.364Z,99.90
2023-02-15T21:47:10.332Z,99.90
2023-02-15T21:51:52.323Z,99.90
2023-02-15T21:56:23.297Z,99.90
2023-02-15T22:00:45.079Z,99.90
2023-02-15T22:05:16.158Z,99.90
2023-02-15T22:09:38.357Z,99.90
2023-02-15T22:14:00.469Z,99.90
2023-02-15T22:18:31.514Z,99.90
2023-02-15T22:22:55.048Z,99.90
2023-02-15T22:27:28.096Z,99.90
2023-02-15T22:31:50.118Z,99.90
2023-02-15T22:36:29.054Z,99.90
2023-02-15T22:40:54.759Z,99.90
2023-02-15T22:45:30.029Z,99.90
2023-02-15T22:49:54.654Z,99.90
2023-02-15T22:54:18.354Z,99.90
2023-02-15T22:58:40.613Z,99.90
2023-02-15T23:03:02.551Z,99.90
2023-02-15T23:07:24.734Z,99.90
2023-02-15T23:11:55.283Z,99.90
2023-02-15T23:16:19.052Z,99.90
2023-02-15T23:20:40.865Z,99.90
2023-02-15T23:25:02.849Z,99.90
2023-02-15T23:29:25.052Z,99.90
2023-02-15T23:33:48.333Z,99.90
2023-02-15T23:38:25.320Z,99.90
2023-02-15T23:42:47.397Z,99.90
2023-02-15T23:47:48.709Z,99.90
2023-02-15T23:52:11.931Z,99.90
2023-02-15T23:56:34.431Z,99.90
